Time;durP1;ratioP1;P1;durP2;ratioP2;P2;SDS_P1;SDS_P2;PMS_P1;PMS_P2;Temp;Humidity;BMP_temperature;BMP_pressure;BME280_temperature;BME280_humidity;BME280_pressure;Samples;Min_cycle;Max_cycle;Signal;HPM_P1;HPM_P2
2022/04/15 00:01:25;;;;;;;5.75;3.38;;;8.60;99.90;;;;;;4993056;28;20061;-67
2022/04/15 00:03:52;;;;;;;4.50;3.00;;;8.60;99.90;;;;;;4993394;28;20042;-68
2022/04/15 00:06:18;;;;;;;5.18;3.53;;;8.60;99.90;;;;;;4991861;28;20039;-68
2022/04/15 00:08:44;;;;;;;6.45;3.83;;;8.70;99.90;;;;;;4995967;28;20412;-68
2022/04/15 00:11:11;;;;;;;9.70;3.78;;;8.70;99.90;;;;;;4995827;28;20140;-68
2022/04/15 00:13:37;;;;;;;5.15;3.45;;;8.70;99.90;;;;;;4997321;28;20046;-68
2022/04/15 00:16:04;;;;;;;5.68;3.60;;;8.70;99.90;;;;;;4997592;28;20512;-68
2022/04/15 00:18:30;;;;;;;6.03;3.70;;;8.70;99.90;;;;;;4996892;28;20133;-68
2022/04/15 00:20:56;;;;;;;5.78;3.50;;;8.70;99.90;;;;;;4995403;28;20051;-68
2022/04/15 00:23:22;;;;;;;5.38;3.60;;;8.70;99.90;;;;;;4996230;28;20045;-68
2022/04/15 00:25:52;;;;;;;6.70;3.97;;;8.70;99.90;;;;;;4979365;28;20069;-68
2022/04/15 00:28:19;;;;;;;7.22;4.15;;;8.90;99.90;;;;;;4996519;28;20061;-68
2022/04/15 00:30:45;;;;;;;4.88;3.45;;;8.80;99.90;;;;;;4995127;28;20116;-68
2022/04/15 00:33:11;;;;;;;5.65;3.03;;;8.80;99.90;;;;;;4996827;28;20078;-68
2022/04/15 00:35:37;;;;;;;8.25;3.65;;;8.80;99.90;;;;;;4996109;28;20082;-68
2022/04/15 00:38:03;;;;;;;7.32;3.47;;;8.90;99.90;;;;;;4996097;28;20473;-68
2022/04/15 00:40:28;;;;;;;5.57;2.70;;;8.90;99.90;;;;;;4996334;28;20042;-68
2022/04/15 00:42:54;;;;;;;4.55;3.55;;;8.90;99.90;;;;;;4994994;28;20057;-68
2022/04/15 00:45:20;;;;;;;5.93;4.15;;;8.90;99.90;;;;;;4996580;28;20039;-68
2022/04/15 00:47:48;;;;;;;5.00;3.25;;;8.90;99.90;;;;;;4996004;28;20092;-68
2022/04/15 00:50:15;;;;;;;2.72;2.08;;;8.90;99.90;;;;;;4996042;28;20054;-68
2022/04/15 00:52:45;;;;;;;4.45;2.08;;;8.90;99.90;;;;;;4995162;28;20089;-68
2022/04/15 00:55:12;;;;;;;3.15;1.88;;;8.90;99.90;;;;;;4995074;28;20170;-68
2022/04/15 00:57:51;;;;;;;3.97;2.08;;;8.90;99.90;;;;;;4996008;28;20134;-67
2022/04/15 01:00:18;;;;;;;2.40;2.03;;;8.90;99.90;;;;;;4995719;28;20096;-67
2022/04/15 01:02:45;;;;;;;5.78;2.50;;;8.90;99.90;;;;;;4979727;28;20101;-68
2022/04/15 01:05:12;;;;;;;3.83;2.17;;;8.90;99.90;;;;;;4995351;28;20502;-68
2022/04/15 01:07:42;;;;;;;6.07;2.83;;;8.90;99.90;;;;;;4995141;28;20042;-68
2022/04/15 01:10:10;;;;;;;5.13;2.65;;;8.90;99.90;;;;;;4996263;28;20497;-68
2022/04/15 01:12:38;;;;;;;4.30;2.08;;;8.80;99.90;;;;;;4995551;28;20043;-69
2022/04/15 01:15:07;;;;;;;4.50;2.03;;;8.80;99.90;;;;;;4995706;28;20058;-68
2022/04/15 01:17:35;;;;;;;3.17;2.20;;;8.90;99.90;;;;;;4995411;28;20570;-69
2022/04/15 01:20:09;;;;;;;4.00;2.17;;;8.80;99.90;;;;;;4995624;28;20045;-68
2022/04/15 01:22:41;;;;;;;2.85;1.90;;;8.90;99.90;;;;;;4996492;28;20046;-68
2022/04/15 01:25:08;;;;;;;3.78;2.15;;;8.90;99.90;;;;;;4995566;28;20050;-68
2022/04/15 01:27:36;;;;;;;4.30;2.58;;;8.90;99.90;;;;;;4994218;28;20062;-68
2022/04/15 01:30:10;;;;;;;3.97;2.53;;;9.00;99.90;;;;;;4995320;28;20466;-68
2022/04/15 01:32:35;;;;;;;;;;;8.90;99.90;;;;;;4996832;28;20101;-68
2022/04/15 01:35:01;;;;;;;4.95;2.38;;;8.90;99.90;;;;;;4994718;28;20397;-68
2022/04/15 01:37:30;;;;;;;7.05;2.80;;;8.90;99.90;;;;;;4994467;28;20046;-68
2022/04/15 01:39:56;;;;;;;6.30;2.70;;;8.90;99.90;;;;;;4994488;28;20060;-68
2022/04/15 01:42:22;;;;;;;4.07;3.08;;;9.00;99.90;;;;;;4994006;28;20042;-68
2022/04/15 01:44:48;;;;;;;4.75;3.50;;;8.90;99.90;;;;;;4994813;28;20113;-68
2022/04/15 01:47:16;;;;;;;6.30;2.85;;;8.90;99.90;;;;;;4994742;28;20467;-68
2022/04/15 01:49:42;;;;;;;5.10;2.92;;;8.90;99.90;;;;;;4995653;28;20427;-68
2022/04/15 01:52:08;;;;;;;3.50;2.30;;;9.00;99.90;;;;;;4995289;28;20416;-68
2022/04/15 01:54:34;;;;;;;3.38;2.47;;;9.00;99.90;;;;;;4995014;28;20053;-68
2022/04/15 01:57:00;;;;;;;3.92;2.22;;;9.00;99.90;;;;;;4994724;28;20490;-69
2022/04/15 01:59:25;;;;;;;7.03;2.70;;;9.00;99.90;;;;;;4994590;28;20125;-68
2022/04/15 02:01:54;;;;;;;5.43;2.67;;;9.00;99.90;;;;;;4993803;28;20598;-68
2022/04/15 02:04:24;;;;;;;5.70;2.60;;;9.00;99.90;;;;;;4993679;28;20058;-68
2022/04/15 02:06:51;;;;;;;5.80;2.63;;;9.00;99.90;;;;;;4994756;28;20070;-68
2022/04/15 02:09:17;;;;;;;6.85;3.08;;;9.00;99.90;;;;;;4994906;28;20062;-68
2022/04/15 02:11:42;;;;;;;5.55;2.85;;;9.00;99.90;;;;;;4994368;28;20046;-68
2022/04/15 02:14:08;;;;;;;4.28;2.50;;;9.00;99.90;;;;;;4995133;28;20054;-68
2022/04/15 02:16:35;;;;;;;5.53;2.92;;;9.00;99.90;;;;;;4993801;28;20054;-68
2022/04/15 02:19:00;;;;;;;6.43;3.03;;;9.00;99.90;;;;;;4994578;28;20077;-68
2022/04/15 02:21:26;;;;;;;4.88;3.28;;;8.90;99.90;;;;;;4993410;28;20054;-68
2022/04/15 02:23:52;;;;;;;6.10;3.08;;;9.00;99.90;;;;;;4994075;28;20129;-68
2022/04/15 02:26:18;;;;;;;5.68;2.83;;;8.90;99.90;;;;;;4993389;28;20050;-68
2022/04/15 02:28:43;;;;;;;7.15;3.00;;;9.00;99.90;;;;;;4992821;28;20077;-68
2022/04/15 02:31:09;;;;;;;7.93;3.08;;;9.00;99.90;;;;;;4992085;28;20077;-68
2022/04/15 02:33:35;;;;;;;5.95;3.33;;;9.00;99.90;;;;;;4994022;28;20057;-68
2022/04/15 02:36:00;;;;;;;6.13;4.03;;;8.90;99.90;;;;;;4993759;28;20050;-68
2022/04/15 02:38:26;;;;;;;9.02;5.88;;;9.00;99.90;;;;;;4993915;28;20089;-68
2022/04/15 02:40:52;;;;;;;8.50;5.82;;;9.10;99.90;;;;;;4993513;28;20127;-68
2022/04/15 02:43:18;;;;;;;10.88;5.93;;;8.90;99.90;;;;;;4994043;28;20042;-68
2022/04/15 02:45:44;;;;;;;8.85;5.72;;;8.90;99.90;;;;;;4993972;28;20046;-68
2022/04/15 02:48:10;;;;;;;8.20;5.13;;;8.90;99.90;;;;;;4994292;28;20042;-69
2022/04/15 02:50:37;;;;;;;7.55;4.90;;;8.90;99.90;;;;;;4994204;28;20458;-68
2022/04/15 02:53:04;;;;;;;6.50;4.70;;;8.90;99.90;;;;;;4993584;28;20058;-68
2022/04/15 02:55:30;;;;;;;7.82;5.13;;;8.90;99.90;;;;;;4994128;28;20054;-68
2022/04/15 02:57:55;;;;;;;8.07;5.00;;;8.90;99.90;;;;;;4993795;28;20535;-68
2022/04/15 03:00:21;;;;;;;7.70;4.85;;;8.90;99.90;;;;;;4992797;28;20038;-68
2022/04/15 03:02:47;;;;;;;6.00;4.63;;;8.90;99.90;;;;;;4993986;28;20046;-68
2022/04/15 03:05:13;;;;;;;7.85;4.53;;;8.90;99.90;;;;;;4993828;28;20200;-68
2022/04/15 03:07:40;;;;;;;7.50;4.55;;;8.80;99.90;;;;;;4994139;28;20042;-68
2022/04/15 03:10:07;;;;;;;6.07;4.80;;;8.80;99.90;;;;;;4993697;28;20050;-68
2022/04/15 03:12:37;;;;;;;6.63;4.70;;;8.80;99.90;;;;;;4994650;28;20061;-68
2022/04/15 03:15:09;;;;;;;6.63;4.80;;;8.80;99.90;;;;;;4992612;28;20166;-68
2022/04/15 03:17:35;;;;;;;5.72;3.80;;;8.80;99.90;;;;;;4993576;28;20053;-69
2022/04/15 03:20:04;;;;;;;4.18;3.65;;;9.00;99.90;;;;;;4994142;28;20043;-68
2022/04/15 03:22:34;;;;;;;4.43;2.95;;;8.70;99.90;;;;;;4993686;28;20055;-68
2022/04/15 03:25:00;;;;;;;4.95;2.88;;;8.60;99.90;;;;;;4994782;28;20068;-68
2022/04/15 03:27:26;;;;;;;5.35;3.20;;;8.60;99.90;;;;;;4992469;28;20050;-68
2022/04/15 03:29:51;;;;;;;5.13;2.45;;;8.50;99.90;;;;;;4992789;28;20050;-69
2022/04/15 03:32:17;;;;;;;4.10;2.58;;;8.50;99.90;;;;;;4994539;28;20046;-68
2022/04/15 03:34:43;;;;;;;5.43;2.53;;;8.50;99.90;;;;;;4993999;28;20054;-68
2022/04/15 03:37:09;;;;;;;3.63;2.10;;;8.40;99.90;;;;;;4992903;28;20436;-69
2022/04/15 03:39:35;;;;;;;3.42;2.63;;;8.20;99.90;;;;;;4993979;28;20052;-68
2022/04/15 03:42:02;;;;;;;4.03;2.38;;;8.40;99.90;;;;;;4993789;28;20414;-68
2022/04/15 03:44:28;;;;;;;2.75;2.15;;;8.40;99.90;;;;;;4996296;28;20462;-69
2022/04/15 03:46:54;;;;;;;4.30;2.40;;;8.40;99.90;;;;;;4997739;28;20085;-67
2022/04/15 03:49:19;;;;;;;4.85;2.40;;;8.40;99.90;;;;;;4997659;28;20038;-68
2022/04/15 03:51:45;;;;;;;3.60;2.63;;;8.30;99.90;;;;;;4997688;28;20042;-69
2022/04/15 03:54:11;;;;;;;3.30;2.35;;;8.30;99.90;;;;;;4997624;28;20050;-68
2022/04/15 03:56:37;;;;;;;2.83;2.40;;;8.30;99.90;;;;;;4997436;28;20050;-68
2022/04/15 03:59:03;;;;;;;2.92;2.30;;;8.30;99.90;;;;;;4980851;28;20057;-69
2022/04/15 04:01:30;;;;;;;2.63;2.00;;;8.30;99.90;;;;;;4997524;28;20050;-68
2022/04/15 04:03:55;;;;;;;4.18;2.83;;;8.30;99.90;;;;;;4997504;28;20048;-68
2022/04/15 04:06:21;;;;;;;3.35;2.75;;;8.20;99.90;;;;;;4997281;28;20045;-69
2022/04/15 04:08:50;;;;;;;4.53;2.70;;;8.30;99.90;;;;;;4998150;28;20430;-68
2022/04/15 04:11:17;;;;;;;2.63;2.20;;;8.30;99.90;;;;;;4997345;28;20050;-68
2022/04/15 04:13:43;;;;;;;2.85;1.80;;;8.30;99.90;;;;;;4996350;28;20086;-68
2022/04/15 04:16:09;;;;;;;3.85;2.50;;;8.30;99.90;;;;;;4996976;28;20521;-68
2022/04/15 04:18:35;;;;;;;4.05;2.10;;;8.20;99.90;;;;;;4997243;28;20050;-69
2022/04/15 04:21:01;;;;;;;2.60;2.40;;;8.20;99.90;;;;;;4997215;28;20545;-68
2022/04/15 04:23:26;;;;;;;2.85;2.13;;;8.20;99.90;;;;;;4997603;28;20421;-68
2022/04/15 04:25:52;;;;;;;4.25;2.08;;;8.10;99.90;;;;;;4996117;28;20153;-68
2022/04/15 04:28:18;;;;;;;3.53;2.63;;;8.10;99.90;;;;;;4996683;28;20062;-68
2022/04/15 04:30:43;;;;;;;3.78;2.28;;;8.10;99.90;;;;;;4996552;28;20089;-69
2022/04/15 04:33:09;;;;;;;6.60;3.08;;;8.20;99.90;;;;;;4995999;28;20062;-69
2022/04/15 04:35:38;;;;;;;5.85;3.42;;;8.10;99.90;;;;;;4996054;28;20057;-69
2022/04/15 04:38:07;;;;;;;5.95;3.40;;;8.10;99.90;;;;;;4996048;28;20058;-68
2022/04/15 04:40:36;;;;;;;4.95;3.40;;;8.10;99.90;;;;;;4996921;28;20054;-69
2022/04/15 04:43:04;;;;;;;4.68;3.00;;;8.10;99.90;;;;;;4996896;28;20046;-68
2022/04/15 04:45:30;;;;;;;6.13;2.83;;;8.10;99.90;;;;;;4996745;28;20046;-68
2022/04/15 04:47:57;;;;;;;5.30;3.53;;;8.00;99.90;;;;;;4996866;28;20046;-69
2022/04/15 04:50:23;;;;;;;5.60;3.67;;;8.00;99.90;;;;;;4996676;28;20046;-69
2022/04/15 04:52:49;;;;;;;4.63;3.60;;;8.00;99.90;;;;;;4997305;28;20050;-69
2022/04/15 04:55:18;;;;;;;4.95;3.13;;;8.00;99.90;;;;;;4994280;28;20054;-69
2022/04/15 04:57:45;;;;;;;4.05;2.92;;;8.00;99.90;;;;;;4996685;28;20055;-68
2022/04/15 05:00:13;;;;;;;4.45;3.60;;;8.00;99.90;;;;;;4996447;28;20129;-68
2022/04/15 05:02:40;;;;;;;6.75;4.15;;;7.90;99.90;;;;;;4996418;28;20049;-68
2022/04/15 05:05:07;;;;;;;5.20;3.05;;;7.90;99.90;;;;;;4996547;28;20050;-69
2022/04/15 05:07:33;;;;;;;4.18;2.70;;;7.90;99.90;;;;;;4996406;28;20050;-68
2022/04/15 05:09:59;;;;;;;4.85;2.85;;;7.90;99.90;;;;;;4996341;28;20046;-68
2022/04/15 05:12:25;;;;;;;5.00;2.75;;;7.90;99.90;;;;;;4996221;28;20081;-68
2022/04/15 05:14:50;;;;;;;5.03;2.72;;;7.90;99.90;;;;;;4996368;28;20079;-68
2022/04/15 05:17:16;;;;;;;4.00;2.47;;;7.90;99.90;;;;;;4996765;28;20483;-68
2022/04/15 05:19:43;;;;;;;4.35;2.58;;;7.80;99.90;;;;;;4996267;28;20084;-68
2022/04/15 05:22:09;;;;;;;4.85;2.72;;;7.90;99.90;;;;;;4995820;28;20104;-68
2022/04/15 05:24:35;;;;;;;3.03;2.67;;;7.90;99.90;;;;;;4978939;28;20058;-68
2022/04/15 05:27:01;;;;;;;4.20;3.17;;;7.90;99.90;;;;;;4995843;28;20053;-67
2022/04/15 05:29:27;;;;;;;5.13;3.25;;;7.90;99.90;;;;;;4996274;28;20461;-68
2022/04/15 05:31:52;;;;;;;4.15;3.03;;;7.90;99.90;;;;;;4995597;28;20390;-68
2022/04/15 05:34:18;;;;;;;6.05;3.88;;;7.90;99.90;;;;;;4995786;28;20057;-68
2022/04/15 05:36:44;;;;;;;5.00;3.58;;;8.50;99.90;;;;;;4996741;28;20113;-68
2022/04/15 05:39:10;;;;;;;6.35;3.60;;;7.90;99.90;;;;;;4995485;28;20482;-68
2022/04/15 05:41:35;;;;;;;4.68;4.05;;;8.00;99.90;;;;;;4994613;28;20090;-69
2022/04/15 05:44:03;;;;;;;5.22;3.80;;;8.00;99.90;;;;;;4995754;28;20077;-68
2022/04/15 05:46:33;;;;;;;5.85;4.25;;;8.00;99.90;;;;;;4995671;28;20050;-68
2022/04/15 05:48:59;;;;;;;4.80;4.03;;;8.00;99.90;;;;;;4995559;28;20050;-68
2022/04/15 05:51:25;;;;;;;6.40;3.90;;;8.00;99.90;;;;;;4995639;28;20182;-68
2022/04/15 05:53:50;;;;;;;7.38;4.90;;;8.00;99.90;;;;;;4995523;28;20090;-68
2022/04/15 05:56:16;;;;;;;8.38;5.25;;;8.10;99.90;;;;;;4995523;28;20065;-69
2022/04/15 05:58:42;;;;;;;6.05;4.88;;;8.10;99.90;;;;;;4995347;28;20039;-68
2022/04/15 06:01:09;;;;;;;8.38;4.88;;;8.10;99.90;;;;;;4995470;28;20042;-68
2022/04/15 06:03:38;;;;;;;6.80;4.57;;;8.10;99.90;;;;;;4995252;28;20058;-68
2022/04/15 06:06:05;;;;;;;7.22;5.05;;;8.10;99.90;;;;;;4995221;28;20474;-68
2022/04/15 06:08:31;;;;;;;9.07;5.60;;;8.10;99.90;;;;;;4995303;28;20062;-69
2022/04/15 06:10:57;;;;;;;7.53;5.50;;;8.10;99.90;;;;;;4995724;28;20389;-69
2022/04/15 06:13:23;;;;;;;11.65;6.65;;;8.10;99.90;;;;;;4995214;28;20050;-68
2022/04/15 06:15:58;;;;;;;12.15;7.95;;;8.10;99.90;;;;;;4995775;28;20089;-69
2022/04/15 06:18:26;;;;;;;14.70;8.50;;;8.20;99.90;;;;;;4995704;28;20046;-68
2022/04/15 06:20:52;;;;;;;15.82;8.48;;;8.20;99.90;;;;;;4995073;28;20125;-68
2022/04/15 06:23:19;;;;;;;17.42;8.75;;;8.30;99.90;;;;;;4977885;28;20062;-68
2022/04/15 06:25:46;;;;;;;15.02;7.93;;;8.30;99.90;;;;;;4994922;28;20049;-69
2022/04/15 06:28:12;;;;;;;11.57;8.15;;;8.40;99.90;;;;;;4994435;28;20646;-69
2022/04/15 06:30:38;;;;;;;15.43;8.20;;;8.40;99.90;;;;;;4994843;28;20047;-69
2022/04/15 06:33:08;;;;;;;15.23;9.13;;;8.40;99.90;;;;;;4993705;28;20046;-68
2022/04/15 06:35:35;;;;;;;10.18;7.82;;;8.40;99.90;;;;;;4994741;28;20070;-69
2022/04/15 06:38:01;;;;;;;14.32;8.30;;;8.40;99.90;;;;;;4994838;28;20507;-68
2022/04/15 06:40:27;;;;;;;12.50;8.40;;;8.30;99.90;;;;;;4994768;28;20077;-68
2022/04/15 06:42:53;;;;;;;11.50;8.38;;;8.30;99.90;;;;;;4994433;28;20379;-68
2022/04/15 06:45:18;;;;;;;15.93;8.43;;;8.30;99.90;;;;;;4994510;28;20052;-69
2022/04/15 06:47:44;;;;;;;15.85;9.27;;;8.30;99.90;;;;;;4994748;28;20056;-69
2022/04/15 06:50:10;;;;;;;11.30;7.15;;;8.40;99.90;;;;;;4993444;28;20046;-69
2022/04/15 06:52:36;;;;;;;14.70;7.82;;;8.40;99.90;;;;;;4994581;28;20050;-68
2022/04/15 06:55:03;;;;;;;12.07;6.38;;;8.30;99.90;;;;;;4993521;28;20372;-68
2022/04/15 06:57:31;;;;;;;11.02;6.30;;;8.30;99.90;;;;;;4977380;28;20055;-68
2022/04/15 06:59:57;;;;;;;9.75;6.28;;;8.40;99.90;;;;;;4993804;28;20430;-68
2022/04/15 07:02:23;;;;;;;9.52;5.68;;;8.30;99.90;;;;;;4993547;28;20384;-68
2022/04/15 07:04:48;;;;;;;8.95;5.55;;;8.50;99.90;;;;;;4993250;28;20133;-68
2022/04/15 07:07:14;;;;;;;10.27;6.28;;;8.40;99.90;;;;;;4994130;28;20075;-68
2022/04/15 07:09:40;;;;;;;13.35;7.50;;;8.40;99.90;;;;;;4994340;28;20046;-69
2022/04/15 07:12:06;;;;;;;13.43;8.40;;;8.30;99.90;;;;;;4993387;28;20142;-69
2022/04/15 07:14:33;;;;;;;14.57;7.30;;;8.30;99.90;;;;;;4994774;28;20054;-69
2022/04/15 07:16:59;;;;;;;10.80;6.13;;;8.30;99.90;;;;;;4994719;28;20061;-69
2022/04/15 07:19:27;;;;;;;14.32;6.90;;;8.30;99.90;;;;;;5000502;28;20046;-68
2022/04/15 07:21:52;;;;;;;11.57;6.63;;;8.30;99.90;;;;;;5000849;28;20086;-68
2022/04/15 07:24:18;;;;;;;10.88;6.78;;;8.40;99.90;;;;;;5000693;28;20221;-68
2022/04/15 07:26:44;;;;;;;11.65;6.88;;;8.40;99.90;;;;;;4999304;28;20054;-68
2022/04/15 07:29:10;;;;;;;11.07;6.50;;;8.30;99.90;;;;;;4999656;28;20118;-68
2022/04/15 07:31:36;;;;;;;10.52;5.93;;;8.40;99.90;;;;;;5001277;28;20046;-69
2022/04/15 07:34:03;;;;;;;12.98;5.88;;;8.40;99.90;;;;;;5000732;28;20147;-69
2022/04/15 07:39:02;;;;;;;10.52;6.57;;;8.40;99.90;;;;;;4984565;28;20054;-69
2022/04/15 07:41:28;;;;;;;11.63;6.85;;;8.40;99.90;;;;;;5000641;28;20050;-69
2022/04/15 07:43:54;;;;;;;13.35;6.20;;;8.50;99.90;;;;;;5000476;28;20053;-69
2022/04/15 07:46:20;;;;;;;6.60;4.90;;;8.70;99.90;;;;;;4999387;28;20089;-68
2022/04/15 07:48:45;;;;;;;7.95;4.90;;;8.60;99.90;;;;;;5000572;28;20081;-68
2022/04/15 07:51:11;;;;;;;8.63;3.92;;;8.50;99.90;;;;;;5000410;28;20133;-69
2022/04/15 07:53:37;;;;;;;8.70;4.50;;;8.60;99.90;;;;;;5000433;28;20046;-68
2022/04/15 07:56:03;;;;;;;6.50;4.10;;;8.70;99.90;;;;;;4999338;28;20052;-69
2022/04/15 07:58:29;;;;;;;7.40;3.97;;;8.70;99.90;;;;;;5001119;28;20066;-68
2022/04/15 08:00:55;;;;;;;6.50;4.47;;;8.70;99.90;;;;;;5000467;28;20047;-67
2022/04/15 08:03:21;;;;;;;11.13;6.20;;;8.80;99.90;;;;;;5000412;28;20050;-68
2022/04/15 08:05:48;;;;;;;12.05;8.00;;;8.80;99.90;;;;;;5000669;28;20142;-68
2022/04/15 08:08:14;;;;;;;9.70;7.65;;;8.90;99.90;;;;;;4999152;28;20081;-67
2022/04/15 08:10:40;;;;;;;11.18;8.13;;;8.90;99.90;;;;;;5001094;28;20042;-67
2022/04/15 08:13:06;;;;;;;9.52;6.05;;;9.00;99.90;;;;;;5000326;28;20052;-68
2022/04/15 08:15:32;;;;;;;7.15;3.80;;;9.10;99.90;;;;;;5000321;28;20050;-67
2022/04/15 08:17:58;;;;;;;6.10;3.55;;;9.20;99.90;;;;;;5000010;28;20046;-67
2022/04/15 08:20:24;;;;;;;6.53;3.92;;;9.20;99.90;;;;;;5000240;28;20085;-67
2022/04/15 08:22:50;;;;;;;6.03;3.90;;;9.30;99.90;;;;;;5000250;28;20081;-67
2022/04/15 08:25:15;;;;;;;6.55;4.18;;;9.30;99.90;;;;;;4998990;28;20516;-67
2022/04/15 08:27:41;;;;;;;7.97;3.92;;;9.30;99.90;;;;;;4999955;28;20054;-68
2022/04/15 08:30:07;;;;;;;8.77;4.20;;;9.40;99.90;;;;;;4997705;28;20077;-68
2022/04/15 08:32:33;;;;;;;7.18;4.78;;;9.40;99.90;;;;;;4996128;28;20046;-68
2022/04/15 08:35:00;;;;;;;12.50;5.57;;;9.40;99.90;;;;;;4996608;28;20050;-68
2022/04/15 08:37:26;;;;;;;8.30;4.63;;;9.30;99.90;;;;;;4995679;28;20121;-67
2022/04/15 08:39:53;;;;;;;7.97;5.10;;;9.40;99.90;;;;;;4996530;28;20133;-67
2022/04/15 08:42:20;;;;;;;8.85;4.88;;;9.50;99.90;;;;;;4979114;28;20050;-67
2022/04/15 08:44:49;;;;;;;9.77;5.20;;;9.40;99.90;;;;;;4995283;28;20146;-68
2022/04/15 08:47:15;;;;;;;9.77;5.25;;;9.50;99.90;;;;;;4994988;28;20093;-68
2022/04/15 08:49:41;;;;;;;9.55;6.20;;;9.50;99.90;;;;;;4994844;28;20054;-67
2022/04/15 08:52:09;;;;;;;10.23;6.43;;;9.60;99.90;;;;;;4996122;28;20042;-67
2022/04/15 08:54:35;;;;;;;6.28;4.22;;;9.70;99.90;;;;;;4995824;28;20046;-68
2022/04/15 08:57:01;;;;;;;6.80;4.18;;;9.70;99.90;;;;;;4994690;28;20057;-67
2022/04/15 08:59:27;;;;;;;9.02;4.38;;;9.80;99.90;;;;;;4996269;28;20046;-68
2022/04/15 09:01:52;;;;;;;9.90;4.88;;;9.80;99.90;;;;;;4995763;28;20076;-68
2022/04/15 09:04:19;;;;;;;9.27;3.92;;;9.90;99.90;;;;;;4995922;28;20380;-68
2022/04/15 09:06:44;;;;;;;8.65;4.20;;;9.90;99.90;;;;;;4994499;28;20041;-68
2022/04/15 09:09:12;;;;;;;6.45;4.10;;;9.90;99.90;;;;;;4995127;28;20042;-69
2022/04/15 09:11:40;;;;;;;7.65;4.28;;;9.90;99.90;;;;;;4995007;28;20042;-69
2022/04/15 09:14:13;;;;;;;6.63;4.43;;;9.90;99.90;;;;;;4995545;28;20089;-70
2022/04/15 09:16:39;;;;;;;8.30;4.22;;;10.00;99.90;;;;;;4995315;28;20053;-68
2022/04/15 09:19:07;;;;;;;7.43;3.83;;;10.00;99.90;;;;;;4994535;28;20046;-68
2022/04/15 09:21:33;;;;;;;8.10;4.38;;;10.10;99.90;;;;;;4994574;28;20120;-68
2022/04/15 09:23:59;;;;;;;5.88;3.92;;;10.20;99.90;;;;;;4995336;28;20057;-69
2022/04/15 09:26:25;;;;;;;6.00;3.50;;;10.10;99.90;;;;;;4995390;28;20046;-68
2022/04/15 09:28:55;;;;;;;4.32;3.42;;;10.10;99.90;;;;;;4995109;28;20062;-68
2022/04/15 09:31:23;;;;;;;4.40;3.70;;;10.10;99.90;;;;;;4995833;28;20058;-68
2022/04/15 09:33:58;;;;;;;5.18;4.00;;;10.20;99.90;;;;;;4995069;28;20128;-68
2022/04/15 09:36:35;;;;;;;6.55;4.43;;;10.20;99.90;;;;;;4995381;28;20133;-69
2022/04/15 09:39:14;;;;;;;8.20;4.63;;;10.20;99.90;;;;;;4994890;28;20137;-69
2022/04/15 09:41:42;;;;;;;7.18;4.25;;;10.10;99.90;;;;;;4994596;28;20129;-68
2022/04/15 09:44:12;;;;;;;5.50;4.80;;;10.20;99.90;;;;;;4995277;28;20054;-68
2022/04/15 09:46:46;;;;;;;9.02;4.82;;;10.20;99.90;;;;;;4994041;28;20108;-67
2022/04/15 09:49:13;;;;;;;6.63;3.97;;;10.10;99.90;;;;;;4995091;28;20046;-68
2022/04/15 09:51:45;;;;;;;7.78;5.10;;;10.00;99.90;;;;;;4977311;28;20552;-68
2022/04/15 09:54:19;;;;;;;7.47;5.00;;;10.00;99.90;;;;;;4994616;28;20097;-68
2022/04/15 09:56:46;;;;;;;6.38;4.70;;;10.00;99.90;;;;;;4995194;28;20050;-69
2022/04/15 09:59:15;;;;;;;10.82;5.35;;;9.90;99.90;;;;;;4995197;28;20050;-69
2022/04/15 10:01:47;;;;;;;6.90;5.20;;;9.80;99.90;;;;;;4995169;28;20054;-68
2022/04/15 10:04:14;;;;;;;5.97;4.40;;;9.80;99.90;;;;;;4995224;28;20093;-68
2022/04/15 10:06:42;;;;;;;6.95;4.90;;;9.80;99.90;;;;;;4995997;28;20382;-68
2022/04/15 10:09:12;;;;;;;7.43;4.38;;;9.80;99.90;;;;;;4994228;28;20496;-68
2022/04/15 10:11:41;;;;;;;7.07;4.10;;;9.80;99.90;;;;;;4994834;28;20081;-68
2022/04/15 10:14:08;;;;;;;4.95;3.40;;;9.80;99.90;;;;;;4994604;28;20050;-68
2022/04/15 10:16:36;;;;;;;5.55;3.45;;;9.70;99.90;;;;;;4993980;28;20061;-68
2022/04/15 10:19:02;;;;;;;7.93;5.30;;;9.70;99.90;;;;;;4995378;28;20046;-69
2022/04/15 10:21:34;;;;;;;6.97;4.20;;;9.70;99.90;;;;;;4994974;28;20089;-68
2022/04/15 10:24:01;;;;;;;6.60;4.30;;;9.70;99.90;;;;;;4994976;28;20057;-68
2022/04/15 10:26:32;;;;;;;5.40;4.03;;;9.70;99.90;;;;;;4993758;28;20053;-68
2022/04/15 10:29:03;;;;;;;7.75;4.13;;;9.70;99.90;;;;;;4993510;28;20093;-69
2022/04/15 10:31:46;;;;;;;6.82;4.00;;;9.70;99.90;;;;;;4993764;28;20087;-69
2022/04/15 10:34:22;;;;;;;7.32;3.35;;;9.70;99.90;;;;;;4995445;28;20133;-69
2022/04/15 10:36:53;;;;;;;6.13;3.85;;;9.70;99.90;;;;;;4994653;28;20046;-69
2022/04/15 10:39:24;;;;;;;6.88;3.83;;;9.60;99.90;;;;;;4977651;28;20077;-69
2022/04/15 10:42:02;;;;;;;8.35;4.70;;;9.70;99.90;;;;;;4993780;28;20061;-69
2022/04/15 10:44:30;;;;;;;7.85;4.60;;;9.70;99.90;;;;;;4993793;28;20112;-69
2022/04/15 10:47:19;;;;;;;7.00;4.13;;;9.70;99.90;;;;;;4994618;28;20049;-69
2022/04/15 10:50:03;;;;;;;5.95;3.25;;;9.80;99.90;;;;;;4994293;28;20054;-70
2022/04/15 10:52:30;;;;;;;9.32;4.75;;;9.70;99.90;;;;;;4993789;28;20046;-69
2022/04/15 10:55:05;;;;;;;7.13;4.45;;;9.60;99.90;;;;;;4993444;28;20061;-69
2022/04/15 10:57:31;;;;;;;7.15;4.60;;;9.70;99.90;;;;;;4994608;28;20200;-69
2022/04/15 11:02:51;;;;;;;7.57;4.13;;;9.70;99.90;;;;;;4994443;28;20046;-69
2022/04/15 11:05:57;;;;;;;8.13;5.03;;;9.70;99.90;;;;;;4993581;28;20057;-69
2022/04/15 11:08:25;;;;;;;7.40;4.68;;;9.70;99.90;;;;;;4994396;28;20054;-69
2022/04/15 11:11:07;;;;;;;9.50;4.95;;;9.60;99.90;;;;;;4993348;28;20042;-69
2022/04/15 11:14:03;;;;;;;8.20;5.35;;;9.60;99.90;;;;;;4993096;28;20086;-69
2022/04/15 11:16:50;;;;;;;6.47;4.80;;;9.60;99.90;;;;;;4994943;28;20081;-69
2022/04/15 11:19:23;;;;;;;6.78;4.85;;;9.60;99.90;;;;;;4993336;28;20081;-69
2022/04/15 11:21:53;;;;;;;6.22;4.40;;;9.60;99.90;;;;;;4994847;28;20104;-69
2022/04/15 11:24:27;;;;;;;7.03;4.90;;;9.70;99.90;;;;;;4994153;28;20101;-68
2022/04/15 11:27:03;;;;;;;6.40;4.40;;;9.60;99.90;;;;;;4993947;28;20042;-69
2022/04/15 11:29:40;;;;;;;6.28;4.28;;;9.70;99.90;;;;;;4993523;28;20047;-69
2022/04/15 11:32:07;;;;;;;7.05;4.47;;;9.70;99.90;;;;;;4993051;28;20479;-69
2022/04/15 11:34:33;;;;;;;6.68;4.50;;;9.70;99.90;;;;;;4992877;28;20120;-69
2022/04/15 11:37:05;;;;;;;5.72;3.95;;;9.70;99.90;;;;;;4994136;28;20086;-69
2022/04/15 11:39:36;;;;;;;6.40;4.50;;;9.70;99.90;;;;;;4993020;28;20047;-69
2022/04/15 11:42:09;;;;;;;5.85;3.95;;;9.70;99.90;;;;;;4994705;28;20042;-69
2022/04/15 11:44:34;;;;;;;5.90;4.47;;;9.70;99.90;;;;;;4994125;28;20098;-69
2022/04/15 11:47:16;;;;;;;7.53;4.65;;;9.70;99.90;;;;;;4976974;28;20082;-68
2022/04/15 11:49:52;;;;;;;8.38;5.10;;;9.70;99.90;;;;;;4993741;28;20130;-69
2022/04/15 11:52:26;;;;;;;10.98;5.70;;;9.70;99.90;;;;;;4993664;28;20498;-69
2022/04/15 11:54:52;;;;;;;8.35;5.25;;;9.70;99.90;;;;;;4992676;28;20054;-69
2022/04/15 11:57:18;;;;;;;10.10;6.15;;;9.70;99.90;;;;;;4992700;28;20100;-69
2022/04/15 11:59:45;;;;;;;8.82;5.20;;;9.70;99.90;;;;;;4976366;28;20054;-68
2022/04/15 12:02:14;;;;;;;9.13;5.00;;;9.70;99.90;;;;;;4976700;28;20054;-69
2022/04/15 12:04:55;;;;;;;6.75;4.40;;;9.70;99.90;;;;;;4994860;28;20390;-69
2022/04/15 12:07:23;;;;;;;8.25;4.53;;;9.70;99.90;;;;;;4996628;28;20061;-68
2022/04/15 12:09:50;;;;;;;8.07;5.05;;;9.70;99.90;;;;;;4996318;28;20042;-69
2022/04/15 12:12:17;;;;;;;9.07;4.55;;;9.70;99.90;;;;;;4996184;28;20061;-69
2022/04/15 12:14:43;;;;;;;7.30;4.90;;;9.70;99.90;;;;;;4997966;28;20132;-68
2022/04/15 12:17:11;;;;;;;8.30;4.93;;;9.80;99.90;;;;;;4996237;28;20209;-68
2022/04/15 12:19:38;;;;;;;7.70;5.22;;;9.70;99.90;;;;;;4996194;28;20129;-68
2022/04/15 12:22:06;;;;;;;10.93;4.75;;;9.80;99.90;;;;;;4996207;28;20522;-68
2022/04/15 12:24:32;;;;;;;5.10;4.22;;;9.80;99.90;;;;;;4980083;28;20105;-68
2022/04/15 12:27:01;;;;;;;5.90;4.00;;;9.70;99.90;;;;;;4996787;28;20517;-68
2022/04/15 12:32:32;;;;;;;8.43;4.15;;;9.80;99.90;;;;;;4996884;28;20479;-69
2022/04/15 12:35:01;;;;;;;8.05;4.65;;;9.80;99.90;;;;;;4997466;28;20133;-69
2022/04/15 12:37:44;;;;;;;8.38;4.90;;;9.80;99.90;;;;;;4996867;28;20051;-68
2022/04/15 12:40:19;;;;;;;4.88;3.60;;;9.80;99.90;;;;;;4996799;28;20043;-68
2022/04/15 12:42:47;;;;;;;6.70;4.22;;;9.80;99.90;;;;;;4996796;28;20090;-68
2022/04/15 12:45:16;;;;;;;6.53;3.97;;;9.80;99.90;;;;;;4996630;28;20047;-68
2022/04/15 12:47:45;;;;;;;7.63;4.15;;;9.80;99.90;;;;;;4996427;28;20495;-68
2022/04/15 12:50:24;;;;;;;6.38;4.03;;;9.80;99.90;;;;;;4995759;28;20388;-68
2022/04/15 12:52:54;;;;;;;9.00;4.85;;;9.80;99.90;;;;;;4997030;28;20046;-68
2022/04/15 12:55:35;;;;;;;6.88;4.15;;;9.90;99.90;;;;;;4996850;28;20081;-68
2022/04/15 12:58:15;;;;;;;6.65;4.47;;;9.90;99.90;;;;;;4997341;28;20089;-69
2022/04/15 13:00:40;;;;;;;6.15;4.30;;;9.80;99.90;;;;;;4979972;28;20132;-68
2022/04/15 13:03:06;;;;;;;6.10;4.38;;;9.80;99.90;;;;;;4995533;28;20050;-68
2022/04/15 13:05:32;;;;;;;8.15;4.25;;;9.80;99.90;;;;;;4996420;28;20486;-68
2022/04/15 13:07:58;;;;;;;10.40;4.88;;;9.80;99.90;;;;;;4995870;28;20066;-69